createdAt,value
2023-03-23T15:59:13.592Z,98580.03
2023-03-23T16:01:45.746Z,98583.22
2023-03-23T16:04:19.550Z,98594.03
2023-03-23T16:06:53.126Z,98577.91
2023-03-23T16:09:25.110Z,98575.94
2023-03-23T16:11:57.828Z,98573.38
2023-03-23T16:14:29.512Z,98584.19
2023-03-23T16:17:01.211Z,98597.91
2023-03-23T16:19:33.104Z,98596.84
2023-03-23T16:22:06.091Z,98606.41
2023-03-23T16:24:38.484Z,98611.88
2023-03-23T16:27:11.426Z,98605.94
2023-03-23T16:30:00.392Z,98599.78
2023-03-23T16:35:05.977Z,98587.84
2023-03-23T16:37:37.826Z,98601.75
2023-03-23T16:40:12.987Z,98605.94
2023-03-23T16:42:48.783Z,98596.69
2023-03-23T16:45:24.229Z,98608.69
2023-03-23T16:48:01.397Z,98612.19
2023-03-23T16:50:34.152Z,98624.81
2023-03-23T16:53:09.830Z,98616.09
2023-03-23T16:55:42.227Z,98616.56
2023-03-23T16:58:18.187Z,98618.41
2023-03-23T17:00:52.096Z,98617.25
2023-03-23T17:03:23.876Z,98621.41
2023-03-23T17:05:55.704Z,98614.69
2023-03-23T17:08:28.626Z,98620.25
2023-03-23T17:11:00.736Z,98620.47
2023-03-23T17:13:34.163Z,98622.78
2023-03-23T17:16:06.384Z,98616.03
2023-03-23T17:18:38.213Z,98624.75
2023-03-23T17:21:10.279Z,98624.97
2023-03-23T17:23:41.967Z,98614.53
2023-03-23T17:26:13.648Z,98621.34
2023-03-23T17:28:45.890Z,98621.81
2023-03-23T17:31:17.732Z,98624.34
2023-03-23T17:33:49.642Z,98637.78
2023-03-23T17:36:21.497Z,98639.84
2023-03-23T17:38:53.264Z,98639.72
2023-03-23T17:41:24.937Z,98645.72
2023-03-23T17:43:56.674Z,98647.03
2023-03-23T17:46:28.400Z,98651.78
2023-03-23T17:49:00.106Z,98648.88
2023-03-23T17:51:31.813Z,98655.13
2023-03-23T17:54:03.831Z,98650.69
2023-03-23T17:56:35.773Z,98647.03
2023-03-23T17:59:08.059Z,98650.78
2023-03-23T18:01:39.835Z,98656.66
2023-03-23T18:04:11.577Z,98647.63
2023-03-23T18:06:43.530Z,98665.47
2023-03-23T18:09:15.704Z,98668.16
2023-03-23T18:11:47.392Z,98668.75
2023-03-23T18:14:19.748Z,98676.53
2023-03-23T18:16:53.067Z,98668.16
2023-03-23T18:19:24.902Z,98678.81
2023-03-23T18:21:56.698Z,98675.13
2023-03-23T18:24:28.359Z,98675.34
2023-03-23T18:27:02.131Z,98678.13
2023-03-23T18:29:33.792Z,98682.50
2023-03-23T18:32:07.227Z,98671.03
2023-03-23T18:34:41.670Z,98672.91
2023-03-23T18:37:13.636Z,98676.34
2023-03-23T18:39:45.388Z,98682.50
2023-03-23T18:42:17.103Z,98687.84
2023-03-23T18:44:48.947Z,98687.84
2023-03-23T18:47:21.535Z,98688.66
2023-03-23T18:49:55.324Z,98685.41
2023-03-23T18:52:30.188Z,98686.25
2023-03-23T18:55:02.087Z,98686.44
2023-03-23T18:57:34.012Z,98684.00
2023-03-23T19:00:08.056Z,98686.66
2023-03-23T19:02:40.154Z,98681.13
2023-03-23T19:05:12.174Z,98682.16
2023-03-23T19:07:44.042Z,98682.16
2023-03-23T19:10:17.318Z,98681.34
2023-03-23T19:12:50.430Z,98685.03
2023-03-23T19:15:24.714Z,98683.19
2023-03-23T19:17:59.834Z,98683.19
2023-03-23T19:21:06.059Z,98681.56
2023-03-23T19:23:24.446Z,98681.78
2023-03-23T19:25:57.047Z,98685.28
2023-03-23T19:31:03.343Z,98673.41
2023-03-23T19:33:35.614Z,98670.16
2023-03-23T19:36:13.092Z,98668.53
2023-03-23T19:38:45.424Z,98673.63
2023-03-23T19:41:19.007Z,98670.38
2023-03-23T19:43:51.439Z,98672.22
2023-03-23T19:46:24.057Z,98667.94
2023-03-23T19:48:56.524Z,98671.88
2023-03-23T19:51:28.664Z,98670.44
2023-03-23T19:54:01.049Z,98672.09
2023-03-23T19:56:34.453Z,98668.38
2023-03-23T19:59:09.574Z,98663.88
2023-03-23T20:01:42.400Z,98670.00
2023-03-23T20:04:14.159Z,98671.41
2023-03-23T20:06:46.309Z,98668.38
2023-03-23T20:09:18.505Z,98664.66
2023-03-23T20:11:50.509Z,98660.41
2023-03-23T20:14:22.659Z,98671.47
2023-03-23T20:16:54.959Z,98668.59
2023-03-23T20:19:28.755Z,98669.22
2023-03-23T20:22:01.676Z,98665.94
2023-03-23T20:24:33.634Z,98663.28
2023-03-23T20:27:05.393Z,98658.38
2023-03-23T20:29:37.098Z,98664.75
2023-03-23T20:32:12.439Z,98666.59
2023-03-23T20:34:49.236Z,98661.28
2023-03-23T20:37:20.983Z,98660.22
2023-03-23T20:39:52.894Z,98656.53
2023-03-23T20:42:29.448Z,98656.16
2023-03-23T20:45:03.714Z,98655.34
2023-03-23T20:47:35.638Z,98653.94
2023-03-23T20:50:09.482Z,98646.19
2023-03-23T20:52:41.727Z,98643.50
2023-03-23T20:55:15.311Z,98641.88
2023-03-23T20:57:47.040Z,98643.94
2023-03-23T21:00:18.893Z,98638.25
2023-03-23T21:02:54.189Z,98631.50
2023-03-23T21:05:26.037Z,98631.34
2023-03-23T21:07:58.985Z,98628.38
2023-03-23T21:10:30.650Z,98629.84
2023-03-23T21:13:02.639Z,98627.19
2023-03-23T21:15:34.676Z,98631.72
2023-03-23T21:18:06.627Z,98629.47
2023-03-23T21:20:38.896Z,98634.44
2023-03-23T21:23:11.128Z,98628.50
2023-03-23T21:25:44.619Z,98633.22
2023-03-23T21:28:17.345Z,98628.56
2023-03-23T21:30:52.465Z,98635.38
2023-03-23T21:33:24.158Z,98631.06
2023-03-23T21:35:55.967Z,98631.06
2023-03-23T21:38:28.746Z,98620.88
2023-03-23T21:41:07.552Z,98619.25
2023-03-23T21:43:40.694Z,98618.81
2023-03-23T21:46:18.195Z,98612.66
2023-03-23T21:48:53.178Z,98607.81
2023-03-23T21:51:27.793Z,98617.63
2023-03-23T21:54:00.811Z,98618.28
2023-03-23T21:56:32.802Z,98612.56
2023-03-23T21:59:07.497Z,98612.81
2023-03-23T22:01:40.828Z,98610.34
2023-03-23T22:04:12.467Z,98610.34
2023-03-23T22:06:44.630Z,98607.91
2023-03-23T22:09:17.303Z,98612.41
2023-03-23T22:11:53.595Z,98615.28
2023-03-23T22:14:25.646Z,98607.94
2023-03-23T22:16:57.451Z,98602.84
2023-03-23T22:19:29.174Z,98604.31
2023-03-23T22:22:04.126Z,98609.84
2023-03-23T22:24:38.676Z,98604.34
2023-03-23T22:27:10.909Z,98604.59
2023-03-23T22:29:42.845Z,98604.19
2023-03-23T22:32:14.731Z,98603.59
2023-03-23T22:34:47.362Z,98595.03
2023-03-23T22:37:19.216Z,98591.75
2023-03-23T22:39:51.215Z,98593.59
2023-03-23T22:42:22.875Z,98593.84
2023-03-23T22:44:54.522Z,98593.22
2023-03-23T22:47:26.184Z,98591.59
2023-03-23T22:49:57.875Z,98594.25
2023-03-23T22:52:33.794Z,98583.00
2023-03-23T22:55:07.403Z,98586.72
2023-03-23T22:57:41.072Z,98585.66
2023-03-23T23:00:18.565Z,98590.16
2023-03-23T23:02:50.582Z,98577.09
2023-03-23T23:05:22.295Z,98577.53
2023-03-23T23:07:53.980Z,98573.22
2023-03-23T23:10:25.873Z,98581.28
2023-03-23T23:12:57.755Z,98580.47
2023-03-23T23:15:29.399Z,98571.88
2023-03-23T23:18:01.247Z,98579.03
2023-03-23T23:20:33.408Z,98570.25
2023-03-23T23:23:05.867Z,98573.94
2023-03-23T23:25:37.771Z,98562.72
2023-03-23T23:28:12.634Z,98565.38
2023-03-23T23:30:45.615Z,98554.94
2023-03-23T23:33:18.824Z,98563.13
2023-03-23T23:35:50.520Z,98554.72
2023-03-23T23:38:22.263Z,98552.50
2023-03-23T23:40:53.903Z,98546.75
2023-03-23T23:43:25.559Z,98545.94
2023-03-23T23:45:57.379Z,98539.41
2023-03-23T23:48:29.065Z,98548.19
2023-03-23T23:51:00.918Z,98537.56
2023-03-23T23:53:34.080Z,98542.06
2023-03-23T23:56:09.647Z,98546.59
2023-03-23T23:58:41.336Z,98543.13
